createdAt,value
2019-03-26T00:00:57.247Z,2.45
2019-03-26T00:03:28.356Z,2.32
2019-03-26T00:05:59.915Z,2.21
2019-03-26T00:08:31.160Z,2.06
2019-03-26T00:11:02.628Z,2.06
2019-03-26T00:13:33.393Z,2.02
2019-03-26T00:16:04.359Z,2.09
2019-03-26T00:18:35.219Z,2.08
2019-03-26T00:21:06.350Z,2.02
2019-03-26T00:23:37.117Z,2.03
2019-03-26T00:26:08.105Z,1.97
2019-03-26T00:28:38.842Z,1.84
2019-03-26T00:31:09.707Z,1.91
2019-03-26T00:33:40.733Z,1.83
2019-03-26T00:36:11.497Z,1.88
2019-03-26T00:38:42.366Z,1.89
2019-03-26T00:41:13.386Z,1.88
2019-03-26T00:43:44.307Z,1.76
2019-03-26T00:46:15.130Z,1.75
2019-03-26T00:48:46.432Z,1.68
2019-03-26T00:51:17.395Z,1.71
2019-03-26T00:53:49.467Z,1.70
2019-03-26T00:56:20.476Z,1.70
2019-03-26T00:58:51.028Z,1.71
2019-03-26T01:01:21.685Z,1.64
2019-03-26T01:03:54.880Z,1.70
2019-03-26T01:06:25.348Z,1.78
2019-03-26T01:08:56.000Z,1.72
2019-03-26T01:11:27.049Z,1.71
2019-03-26T01:13:58.105Z,1.71
2019-03-26T01:16:29.331Z,1.72
2019-03-26T01:19:00.081Z,1.72
2019-03-26T01:21:30.836Z,1.67
2019-03-26T01:24:01.690Z,1.70
2019-03-26T01:26:32.785Z,1.73
2019-03-26T01:29:04.164Z,1.79
2019-03-26T01:31:35.401Z,1.83
2019-03-26T01:34:07.011Z,1.80
2019-03-26T01:36:37.625Z,1.88
2019-03-26T01:39:08.401Z,1.85
2019-03-26T01:41:39.309Z,1.83
2019-03-26T01:44:10.888Z,1.91
2019-03-26T01:46:41.589Z,1.88
2019-03-26T01:49:12.385Z,1.82
2019-03-26T01:51:43.304Z,1.85
2019-03-26T01:54:14.270Z,1.88
2019-03-26T01:56:45.683Z,1.91
2019-03-26T01:59:16.484Z,1.84
2019-03-26T02:01:47.461Z,1.94
2019-03-26T02:04:18.298Z,1.88
2019-03-26T02:06:49.506Z,1.93
2019-03-26T02:09:20.138Z,1.89
2019-03-26T02:11:50.866Z,1.96
2019-03-26T02:14:21.863Z,1.96
2019-03-26T02:16:52.807Z,1.94
2019-03-26T02:19:23.605Z,1.77
2019-03-26T02:21:54.583Z,1.71
2019-03-26T02:24:25.427Z,1.53
2019-03-26T02:26:56.254Z,1.52
2019-03-26T02:29:26.987Z,1.61
2019-03-26T02:31:58.234Z,1.63
2019-03-26T02:34:28.939Z,1.60
2019-03-26T02:37:00.130Z,1.71
2019-03-26T02:39:31.405Z,1.71
2019-03-26T02:42:02.320Z,1.73
2019-03-26T02:44:33.127Z,1.74
2019-03-26T02:47:04.022Z,1.74
2019-03-26T02:49:35.024Z,1.81
2019-03-26T02:52:05.794Z,1.86
2019-03-26T02:54:36.202Z,1.85
2019-03-26T02:57:07.107Z,1.85
2019-03-26T02:59:38.406Z,1.82
2019-03-26T03:02:09.068Z,1.98
2019-03-26T03:04:40.018Z,2.01
2019-03-26T03:07:10.690Z,2.11
2019-03-26T03:09:41.642Z,2.11
2019-03-26T03:12:12.688Z,2.01
2019-03-26T03:14:43.807Z,1.94
2019-03-26T03:17:14.725Z,1.98
2019-03-26T03:19:45.687Z,1.99
2019-03-26T03:22:16.435Z,1.98
2019-03-26T03:24:46.858Z,2.02
2019-03-26T03:27:17.543Z,1.95
2019-03-26T03:29:48.349Z,1.95
2019-03-26T03:32:19.189Z,1.93
2019-03-26T03:34:49.983Z,2.00
2019-03-26T03:37:20.994Z,1.99
2019-03-26T03:39:52.854Z,2.05
2019-03-26T03:42:23.751Z,2.05
2019-03-26T03:44:54.349Z,2.07
2019-03-26T03:47:27.346Z,2.15
2019-03-26T03:49:58.236Z,2.12
2019-03-26T03:52:30.547Z,2.05
2019-03-26T03:55:01.408Z,1.96
2019-03-26T03:57:32.683Z,2.00
2019-03-26T04:00:03.548Z,1.95
2019-03-26T04:02:34.963Z,1.86
2019-03-26T04:05:06.682Z,1.88
2019-03-26T04:07:37.645Z,1.79
2019-03-26T04:10:08.727Z,1.84
2019-03-26T04:12:39.739Z,1.86
2019-03-26T04:15:11.113Z,1.78
2019-03-26T04:17:41.787Z,1.78
2019-03-26T04:20:12.492Z,1.75
2019-03-26T04:22:43.644Z,1.77
2019-03-26T04:25:14.924Z,1.74
2019-03-26T04:27:45.841Z,1.66
2019-03-26T04:30:20.658Z,1.58
2019-03-26T04:32:51.724Z,1.70
2019-03-26T04:35:23.424Z,1.75
2019-03-26T04:37:54.374Z,1.79
2019-03-26T04:40:25.120Z,1.64
2019-03-26T04:42:56.335Z,1.76
2019-03-26T04:45:27.134Z,1.76
2019-03-26T04:47:58.388Z,1.78
2019-03-26T04:50:29.577Z,1.86
2019-03-26T04:53:00.396Z,1.86
2019-03-26T04:55:31.183Z,1.91
2019-03-26T04:58:02.281Z,1.97
2019-03-26T05:00:33.751Z,1.98
2019-03-26T05:03:04.562Z,2.02
2019-03-26T05:05:35.579Z,2.07
2019-03-26T05:08:06.341Z,2.07
2019-03-26T05:10:37.121Z,2.12
2019-03-26T05:13:08.428Z,2.16
2019-03-26T05:15:39.277Z,2.20
2019-03-26T05:18:10.962Z,2.23
2019-03-26T05:20:41.723Z,2.31
2019-03-26T05:23:12.706Z,2.32
2019-03-26T05:25:43.371Z,2.32
2019-03-26T05:28:14.380Z,2.36
2019-03-26T05:31:02.427Z,2.40
2019-03-26T05:33:33.107Z,2.40
2019-03-26T05:36:03.981Z,2.38
2019-03-26T05:38:34.966Z,2.45
2019-03-26T05:41:05.797Z,2.48
2019-03-26T05:43:37.041Z,2.49
2019-03-26T05:46:07.990Z,2.49
2019-03-26T05:48:38.785Z,2.53
2019-03-26T05:51:10.705Z,2.66
2019-03-26T05:53:41.858Z,2.64
2019-03-26T05:56:13.203Z,2.66
2019-03-26T05:58:44.108Z,2.66
2019-03-26T06:01:16.257Z,2.63
2019-03-26T06:03:47.919Z,2.70
2019-03-26T06:06:21.062Z,2.65
2019-03-26T06:08:52.001Z,2.66
2019-03-26T06:11:24.008Z,2.73
2019-03-26T06:13:55.401Z,2.79
2019-03-26T06:16:37.827Z,2.82
2019-03-26T06:18:59.148Z,2.92
2019-03-26T06:21:30.152Z,2.94
2019-03-26T06:24:01.576Z,3.00
2019-03-26T06:26:32.544Z,3.06
2019-03-26T06:29:03.419Z,3.14
2019-03-26T06:31:34.944Z,3.14
2019-03-26T06:34:06.279Z,3.11
2019-03-26T06:36:36.826Z,3.12
2019-03-26T06:39:09.270Z,3.15
2019-03-26T06:41:40.560Z,3.10
2019-03-26T06:44:11.600Z,3.08
2019-03-26T06:46:42.559Z,3.10
2019-03-26T06:49:13.351Z,3.09
2019-03-26T06:51:44.164Z,3.17
2019-03-26T06:54:15.009Z,3.26
2019-03-26T06:56:46.043Z,3.31
2019-03-26T06:59:17.363Z,3.41
2019-03-26T07:01:48.482Z,3.43
2019-03-26T07:04:20.121Z,3.49
2019-03-26T07:06:51.323Z,3.53
2019-03-26T07:09:22.554Z,3.62
2019-03-26T07:11:53.364Z,3.58
2019-03-26T07:14:24.683Z,3.62
2019-03-26T07:16:55.444Z,3.71
2019-03-26T07:19:26.195Z,3.84
2019-03-26T07:21:57.152Z,3.95
2019-03-26T07:24:27.783Z,3.87
2019-03-26T07:26:58.764Z,3.97
2019-03-26T07:29:29.497Z,4.10
2019-03-26T07:32:00.448Z,4.12
2019-03-26T07:34:32.087Z,4.08
2019-03-26T07:37:04.061Z,4.17
2019-03-26T07:39:35.044Z,4.09
2019-03-26T07:42:06.390Z,4.08
2019-03-26T07:44:37.452Z,4.16
2019-03-26T07:47:08.403Z,4.20
2019-03-26T07:49:39.964Z,4.27
2019-03-26T07:52:11.610Z,4.31
2019-03-26T07:54:43.731Z,4.44
2019-03-26T07:57:14.878Z,4.64
2019-03-26T07:59:46.372Z,4.59
2019-03-26T08:02:18.202Z,4.59
2019-03-26T08:04:49.723Z,4.62
2019-03-26T08:07:20.819Z,4.68
2019-03-26T08:09:51.887Z,4.62
2019-03-26T08:12:22.923Z,4.66
2019-03-26T08:14:54.963Z,4.69
2019-03-26T08:17:26.536Z,4.78
2019-03-26T08:19:57.763Z,4.77
2019-03-26T08:22:28.603Z,4.74
2019-03-26T08:25:00.049Z,4.73
2019-03-26T08:27:31.084Z,4.72
2019-03-26T08:30:03.045Z,4.68
2019-03-26T08:32:36.944Z,4.69
2019-03-26T08:35:07.684Z,4.70
2019-03-26T08:37:38.845Z,4.70
2019-03-26T08:40:09.429Z,4.76
2019-03-26T08:42:40.483Z,4.74
2019-03-26T08:45:11.525Z,4.79
2019-03-26T08:47:42.803Z,4.82
2019-03-26T08:50:14.644Z,4.82
2019-03-26T08:52:45.485Z,4.82
2019-03-26T08:55:16.566Z,4.85
2019-03-26T08:57:47.445Z,4.89
2019-03-26T09:00:19.125Z,4.95
2019-03-26T09:02:50.603Z,4.95
2019-03-26T09:05:21.726Z,4.94
2019-03-26T09:07:52.591Z,4.88
2019-03-26T09:10:24.679Z,4.87
2019-03-26T09:12:55.657Z,4.88
2019-03-26T09:15:27.188Z,4.65
2019-03-26T09:17:58.388Z,4.61
2019-03-26T09:20:30.563Z,4.61
2019-03-26T09:23:01.843Z,4.47
2019-03-26T09:25:34.307Z,4.44
2019-03-26T09:28:05.866Z,4.36
2019-03-26T09:30:38.058Z,4.18
2019-03-26T09:33:09.299Z,4.11
2019-03-26T09:35:40.904Z,4.11
2019-03-26T09:38:12.097Z,4.11
2019-03-26T09:40:43.154Z,4.15
2019-03-26T09:43:13.841Z,4.13
2019-03-26T09:45:44.215Z,4.11
2019-03-26T09:48:14.627Z,4.14
2019-03-26T09:50:45.079Z,4.21
2019-03-26T09:53:15.447Z,4.30
2019-03-26T09:55:46.089Z,4.35
2019-03-26T09:58:16.692Z,4.36
2019-03-26T10:00:47.243Z,4.45
2019-03-26T10:03:17.769Z,4.61
2019-03-26T10:05:48.251Z,4.74
2019-03-26T10:08:18.690Z,4.76
2019-03-26T10:10:50.085Z,4.80
2019-03-26T10:13:20.552Z,4.89
2019-03-26T10:15:50.973Z,5.02
2019-03-26T10:18:21.402Z,5.13
2019-03-26T10:20:51.954Z,5.15
2019-03-26T10:23:22.436Z,5.12
2019-03-26T10:25:52.855Z,5.10
2019-03-26T10:28:23.212Z,5.06
2019-03-26T10:30:54.636Z,5.03
2019-03-26T10:33:26.068Z,5.01
2019-03-26T10:35:56.526Z,5.07
2019-03-26T10:38:27.113Z,5.09
2019-03-26T10:40:57.587Z,5.11
2019-03-26T10:43:27.942Z,5.13
2019-03-26T10:45:58.365Z,5.20
2019-03-26T10:48:31.807Z,5.24
2019-03-26T10:51:00.847Z,5.32
2019-03-26T10:53:31.213Z,5.39
2019-03-26T10:56:01.602Z,5.55
2019-03-26T10:58:32.238Z,5.76
2019-03-26T11:01:02.716Z,5.88
2019-03-26T11:03:33.516Z,6.00
2019-03-26T11:06:04.028Z,6.00
2019-03-26T11:08:34.624Z,6.15
2019-03-26T11:11:05.618Z,6.24
2019-03-26T11:13:36.583Z,6.21
2019-03-26T11:16:06.981Z,6.30
2019-03-26T11:18:37.443Z,6.29
2019-03-26T11:21:07.914Z,6.50
2019-03-26T11:23:38.421Z,6.59
2019-03-26T11:26:08.973Z,6.66
2019-03-26T11:28:39.363Z,6.82
2019-03-26T11:31:09.771Z,6.78
2019-03-26T11:33:40.317Z,6.70
2019-03-26T11:36:10.762Z,6.86
2019-03-26T11:38:41.255Z,6.75
2019-03-26T11:41:11.648Z,6.84
2019-03-26T11:43:42.405Z,6.94
2019-03-26T11:46:12.826Z,6.80
2019-03-26T11:48:43.326Z,6.90
2019-03-26T11:51:13.854Z,6.81
2019-03-26T11:53:44.316Z,6.88
2019-03-26T11:56:14.774Z,6.84
2019-03-26T11:58:45.210Z,6.98
2019-03-26T12:01:15.621Z,7.11
2019-03-26T12:03:46.050Z,7.14
2019-03-26T12:06:16.515Z,7.25
2019-03-26T12:08:46.992Z,7.34
2019-03-26T12:11:17.458Z,7.42
2019-03-26T12:13:47.834Z,7.66
2019-03-26T12:16:18.321Z,7.71
2019-03-26T12:18:48.909Z,7.68
2019-03-26T12:21:19.892Z,7.42
2019-03-26T12:23:50.361Z,7.32
2019-03-26T12:26:20.771Z,7.35
2019-03-26T12:28:51.219Z,7.32
2019-03-26T12:31:21.656Z,7.39
2019-03-26T12:33:52.105Z,7.47
2019-03-26T12:36:22.804Z,7.55
2019-03-26T12:38:53.223Z,7.53
2019-03-26T12:41:23.620Z,7.51
2019-03-26T12:43:54.168Z,7.38
2019-03-26T12:46:24.915Z,7.32
2019-03-26T12:48:56.374Z,7.17
2019-03-26T12:51:26.784Z,7.10
2019-03-26T12:53:57.131Z,7.16
2019-03-26T12:56:27.936Z,7.11
2019-03-26T12:58:58.635Z,7.37
2019-03-26T13:01:29.239Z,7.51
2019-03-26T13:04:12.058Z,7.67
2019-03-26T13:06:32.413Z,7.79
2019-03-26T13:09:03.284Z,7.75
2019-03-26T13:11:33.692Z,7.67
2019-03-26T13:14:04.143Z,7.84
2019-03-26T13:16:35.259Z,7.65
2019-03-26T13:19:06.062Z,7.46
2019-03-26T13:21:37.657Z,7.40
2019-03-26T13:24:11.310Z,7.46
2019-03-26T13:26:40.905Z,7.42
2019-03-26T13:29:11.534Z,7.33
2019-03-26T13:31:42.048Z,7.29
2019-03-26T13:34:12.973Z,7.30
2019-03-26T13:36:43.916Z,7.42
2019-03-26T13:39:14.374Z,7.52
2019-03-26T13:41:45.532Z,7.50
2019-03-26T13:44:16.215Z,7.27
2019-03-26T13:46:47.717Z,7.20
2019-03-26T13:49:18.326Z,7.12
2019-03-26T13:51:49.002Z,7.25
2019-03-26T13:54:19.381Z,7.11
2019-03-26T13:56:49.779Z,7.28
2019-03-26T13:59:20.234Z,7.28
2019-03-26T14:01:54.228Z,7.24
2019-03-26T14:04:25.147Z,7.27
2019-03-26T14:06:55.546Z,7.27
2019-03-26T14:09:26.111Z,7.35
2019-03-26T14:11:57.782Z,7.44
2019-03-26T14:14:28.406Z,7.37
2019-03-26T14:16:59.135Z,7.32
2019-03-26T14:19:29.582Z,7.29
2019-03-26T14:22:00.066Z,7.29
2019-03-26T14:24:30.648Z,7.22
2019-03-26T14:27:01.101Z,7.23
2019-03-26T14:29:31.539Z,7.23
2019-03-26T14:32:01.961Z,7.29
2019-03-26T14:34:32.467Z,7.28
2019-03-26T14:37:02.941Z,7.27
2019-03-26T14:39:33.345Z,7.31
2019-03-26T14:42:29.191Z,7.29
2019-03-26T14:45:01.275Z,7.32
2019-03-26T14:47:32.176Z,7.13
2019-03-26T14:50:02.826Z,7.00
2019-03-26T14:52:33.895Z,6.99
2019-03-26T14:55:06.320Z,7.01
2019-03-26T14:57:36.729Z,7.02
2019-03-26T15:00:07.547Z,7.07
2019-03-26T15:02:39.734Z,7.10
2019-03-26T15:05:13.757Z,7.14
2019-03-26T15:07:44.817Z,7.12
2019-03-26T15:10:17.766Z,7.11
2019-03-26T15:12:48.386Z,7.00
2019-03-26T15:15:18.847Z,7.00
2019-03-26T15:17:49.358Z,6.95
2019-03-26T15:20:19.878Z,6.92
2019-03-26T15:22:50.283Z,6.84
2019-03-26T15:25:20.715Z,6.65
2019-03-26T15:27:52.140Z,6.34
2019-03-26T15:30:24.194Z,5.95
2019-03-26T15:32:55.155Z,5.78
2019-03-26T15:35:26.698Z,5.66
2019-03-26T15:37:58.694Z,5.57
2019-03-26T15:40:30.984Z,5.54
2019-03-26T15:43:02.034Z,5.49
2019-03-26T15:45:32.613Z,5.51
2019-03-26T15:48:03.213Z,5.59
2019-03-26T15:50:36.455Z,5.66
2019-03-26T15:53:06.846Z,5.65
2019-03-26T15:55:37.355Z,5.75
2019-03-26T15:58:07.873Z,5.73
2019-03-26T16:00:38.358Z,5.80
2019-03-26T16:03:08.807Z,5.84
2019-03-26T16:05:40.696Z,5.91
2019-03-26T16:08:11.232Z,5.93
2019-03-26T16:10:41.708Z,5.99
2019-03-26T16:13:12.351Z,6.03
2019-03-26T16:15:44.856Z,6.05
2019-03-26T16:18:14.957Z,6.08
2019-03-26T16:20:45.487Z,6.11
2019-03-26T16:23:15.886Z,6.16
2019-03-26T16:25:46.353Z,6.09
2019-03-26T16:28:16.994Z,6.08
2019-03-26T16:30:47.464Z,6.11
2019-03-26T16:33:17.884Z,6.07
2019-03-26T16:35:48.289Z,6.09
2019-03-26T16:38:18.719Z,6.08
2019-03-26T16:40:49.219Z,6.10
2019-03-26T16:43:19.780Z,6.11
2019-03-26T16:45:50.324Z,6.14
2019-03-26T16:48:20.728Z,6.17
2019-03-26T16:50:52.583Z,6.21
2019-03-26T16:53:23.151Z,6.23
2019-03-26T16:55:53.532Z,6.24
2019-03-26T16:58:24.643Z,6.26
2019-03-26T17:00:55.756Z,6.25
2019-03-26T17:03:31.566Z,6.23
2019-03-26T17:06:00.956Z,6.21
2019-03-26T17:08:31.624Z,6.16
2019-03-26T17:11:03.237Z,6.12
2019-03-26T17:13:34.876Z,6.16
2019-03-26T17:16:06.417Z,6.12
2019-03-26T17:18:37.915Z,6.11
2019-03-26T17:21:09.136Z,6.11
2019-03-26T17:23:43.678Z,6.11
2019-03-26T17:26:15.600Z,6.10
2019-03-26T17:28:46.736Z,6.11
2019-03-26T17:31:17.757Z,6.11
2019-03-26T17:33:49.357Z,6.08
2019-03-26T17:36:20.235Z,6.08
2019-03-26T17:38:51.349Z,6.12
2019-03-26T17:41:22.980Z,6.09
2019-03-26T17:43:54.199Z,6.07
2019-03-26T17:46:25.020Z,6.09
2019-03-26T17:48:56.994Z,6.05
2019-03-26T17:51:28.755Z,6.03
2019-03-26T17:54:00.011Z,6.02
2019-03-26T17:56:31.195Z,6.02
2019-03-26T17:59:02.581Z,6.02
2019-03-26T18:01:33.336Z,6.05
2019-03-26T18:04:18.158Z,6.06
2019-03-26T18:06:54.276Z,6.06
2019-03-26T18:09:25.476Z,6.05
2019-03-26T18:11:57.069Z,6.03
2019-03-26T18:14:28.382Z,6.02
2019-03-26T18:17:03.852Z,6.02
2019-03-26T18:19:35.454Z,6.04
2019-03-26T18:22:22.257Z,6.01
2019-03-26T18:25:05.087Z,6.05
2019-03-26T18:27:40.599Z,6.00
2019-03-26T18:30:14.044Z,6.01
2019-03-26T18:32:44.726Z,6.02
2019-03-26T18:35:21.486Z,6.00
2019-03-26T18:37:57.429Z,5.99
2019-03-26T18:40:30.849Z,5.86
2019-03-26T18:43:02.917Z,5.75
2019-03-26T18:45:34.328Z,5.64
2019-03-26T18:48:10.445Z,5.50
2019-03-26T18:50:44.246Z,5.51
2019-03-26T18:53:18.193Z,5.40
2019-03-26T18:55:53.044Z,5.32
2019-03-26T18:58:26.982Z,5.29
2019-03-26T19:01:00.288Z,5.30
2019-03-26T19:03:32.205Z,5.29
2019-03-26T19:06:12.526Z,5.23
2019-03-26T19:08:57.528Z,5.22
2019-03-26T19:11:34.615Z,5.08
2019-03-26T19:14:08.182Z,5.08
2019-03-26T19:16:43.342Z,4.98
2019-03-26T19:19:21.133Z,4.97
2019-03-26T19:21:55.797Z,4.89
2019-03-26T19:24:38.566Z,4.86
2019-03-26T19:27:16.678Z,4.86
2019-03-26T19:29:48.399Z,4.83
2019-03-26T19:32:26.316Z,4.85
2019-03-26T19:35:16.223Z,4.84
2019-03-26T19:38:05.791Z,4.88
2019-03-26T19:40:57.391Z,4.93
2019-03-26T19:43:40.641Z,4.97
2019-03-26T19:46:18.942Z,4.93
2019-03-26T19:48:59.405Z,4.91
2019-03-26T19:51:32.404Z,4.90
2019-03-26T19:54:03.495Z,4.90
2019-03-26T19:56:34.601Z,4.86
2019-03-26T19:59:05.961Z,4.93
2019-03-26T20:01:37.479Z,5.01
2019-03-26T20:04:08.799Z,4.99
2019-03-26T20:06:43.360Z,4.95
2019-03-26T20:09:18.480Z,4.97
2019-03-26T20:11:49.691Z,4.95
2019-03-26T20:14:22.270Z,4.94
2019-03-26T20:16:53.713Z,4.92
2019-03-26T20:19:26.362Z,4.86
2019-03-26T20:21:57.897Z,4.70
2019-03-26T20:24:29.437Z,4.32
2019-03-26T20:27:00.227Z,4.17
2019-03-26T20:29:31.849Z,4.06
2019-03-26T20:32:03.554Z,4.04
2019-03-26T20:34:36.140Z,3.99
2019-03-26T20:37:08.688Z,3.97
2019-03-26T20:39:40.889Z,4.03
2019-03-26T20:42:11.576Z,4.05
2019-03-26T20:44:42.195Z,4.07
2019-03-26T20:47:13.747Z,4.06
2019-03-26T20:49:52.666Z,4.08
2019-03-26T20:52:31.708Z,4.13
2019-03-26T20:55:11.328Z,4.15
2019-03-26T20:57:42.511Z,4.17
2019-03-26T21:00:19.752Z,4.07
2019-03-26T21:02:54.388Z,4.01
2019-03-26T21:05:39.259Z,3.95
2019-03-26T21:08:22.813Z,3.95
2019-03-26T21:10:55.505Z,3.94
2019-03-26T21:13:27.157Z,3.94
2019-03-26T21:15:59.139Z,3.85
2019-03-26T21:18:30.256Z,3.82
2019-03-26T21:21:02.543Z,3.86
2019-03-26T21:23:33.637Z,3.89
2019-03-26T21:26:05.264Z,3.87
2019-03-26T21:28:38.674Z,3.84
2019-03-26T21:31:09.946Z,3.86
2019-03-26T21:33:41.951Z,3.82
2019-03-26T21:36:13.401Z,3.72
2019-03-26T21:38:44.199Z,3.75
2019-03-26T21:41:15.400Z,3.63
2019-03-26T21:43:46.526Z,3.40
2019-03-26T21:46:17.502Z,3.27
2019-03-26T21:48:48.211Z,3.26
2019-03-26T21:51:19.340Z,3.30
2019-03-26T21:53:50.091Z,3.34
2019-03-26T21:56:21.235Z,3.36
2019-03-26T21:58:51.892Z,3.33
2019-03-26T22:01:23.562Z,3.23
2019-03-26T22:03:54.327Z,3.07
2019-03-26T22:06:25.767Z,2.98
2019-03-26T22:08:57.686Z,2.97
2019-03-26T22:11:29.821Z,3.01
2019-03-26T22:14:00.752Z,2.99
2019-03-26T22:16:32.164Z,2.96
2019-03-26T22:19:03.318Z,2.87
2019-03-26T22:21:34.358Z,2.80
2019-03-26T22:24:05.948Z,2.79
2019-03-26T22:26:37.550Z,2.72
2019-03-26T22:29:08.815Z,2.70
2019-03-26T22:31:40.122Z,2.70
2019-03-26T22:34:11.300Z,2.68
2019-03-26T22:36:42.111Z,2.61
2019-03-26T22:39:13.493Z,2.58
2019-03-26T22:41:45.085Z,2.53
2019-03-26T22:44:16.296Z,2.36
2019-03-26T22:46:47.772Z,2.29
2019-03-26T22:49:19.317Z,2.27
2019-03-26T22:51:50.055Z,2.21
2019-03-26T22:54:21.224Z,2.22
2019-03-26T22:56:52.201Z,2.27
2019-03-26T22:59:23.173Z,2.22
2019-03-26T23:01:54.273Z,2.20
2019-03-26T23:04:26.193Z,2.14
2019-03-26T23:06:57.286Z,2.04
2019-03-26T23:09:28.483Z,2.01
2019-03-26T23:11:59.638Z,1.94
2019-03-26T23:14:43.943Z,1.79
2019-03-26T23:17:03.422Z,1.78
2019-03-26T23:19:34.222Z,1.80
2019-03-26T23:22:05.145Z,1.77
2019-03-26T23:24:36.071Z,1.77
2019-03-26T23:27:07.282Z,1.76
2019-03-26T23:29:38.462Z,1.77
2019-03-26T23:32:09.806Z,1.75
2019-03-26T23:34:40.552Z,1.68
2019-03-26T23:37:11.334Z,1.67
2019-03-26T23:39:42.457Z,1.63
2019-03-26T23:42:13.367Z,1.58
2019-03-26T23:44:57.442Z,1.55
2019-03-26T23:47:16.741Z,1.50
2019-03-26T23:49:48.026Z,1.46
2019-03-26T23:52:19.135Z,1.35
2019-03-26T23:54:49.965Z,1.35
2019-03-26T23:57:21.079Z,1.31
2019-03-26T23:59:52.031Z,1.27
